sensor_id;sensor_type;location;lat;lon;timestamp;temperature;humidity
9118;DHT22;4594;50.994;7.126;2023-02-15T00:01:43;6.40;31.60
9118;DHT22;4594;50.994;7.126;2023-02-15T00:04:09;6.40;31.60
9118;DHT22;4594;50.994;7.126;2023-02-15T00:06:38;6.40;31.60
9118;DHT22;4594;50.994;7.126;2023-02-15T00:09:04;6.40;31.60
9118;DHT22;4594;50.994;7.126;2023-02-15T00:11:30;6.40;31.60
9118;DHT22;4594;50.994;7.126;2023-02-15T00:14:13;6.40;31.60
9118;DHT22;4594;50.994;7.126;2023-02-15T00:16:42;6.30;31.60
9118;DHT22;4594;50.994;7.126;2023-02-15T00:19:10;6.30;31.60
9118;DHT22;4594;50.994;7.126;2023-02-15T00:21:38;6.30;31.60
9118;DHT22;4594;50.994;7.126;2023-02-15T00:24:07;6.30;31.60
9118;DHT22;4594;50.994;7.126;2023-02-15T00:26:34;6.30;31.70
9118;DHT22;4594;50.994;7.126;2023-02-15T00:29:02;6.30;31.60
9118;DHT22;4594;50.994;7.126;2023-02-15T00:31:29;6.20;31.60
9118;DHT22;4594;50.994;7.126;2023-02-15T00:34:14;6.20;31.60
9118;DHT22;4594;50.994;7.126;2023-02-15T00:36:45;6.20;31.80
9118;DHT22;4594;50.994;7.126;2023-02-15T00:39:11;6.20;31.60
9118;DHT22;4594;50.994;7.126;2023-02-15T00:41:38;6.20;31.70
9118;DHT22;4594;50.994;7.126;2023-02-15T00:44:04;6.20;31.70
9118;DHT22;4594;50.994;7.126;2023-02-15T00:46:31;6.10;31.70
9118;DHT22;4594;50.994;7.126;2023-02-15T00:48:57;6.10;31.70
9118;DHT22;4594;50.994;7.126;2023-02-15T00:51:23;6.10;31.70
9118;DHT22;4594;50.994;7.126;2023-02-15T00:53:49;6.10;31.70
9118;DHT22;4594;50.994;7.126;2023-02-15T00:56:15;6.10;31.80
9118;DHT22;4594;50.994;7.126;2023-02-15T00:58:41;6.10;31.80
9118;DHT22;4594;50.994;7.126;2023-02-15T01:01:11;6.10;31.80
9118;DHT22;4594;50.994;7.126;2023-02-15T01:03:39;6.00;31.80
9118;DHT22;4594;50.994;7.126;2023-02-15T01:06:09;6.00;31.80
9118;DHT22;4594;50.994;7.126;2023-02-15T01:08:36;6.00;31.70
9118;DHT22;4594;50.994;7.126;2023-02-15T01:11:08;6.00;31.70
9118;DHT22;4594;50.994;7.126;2023-02-15T01:13:36;6.00;31.80
9118;DHT22;4594;50.994;7.126;2023-02-15T01:16:03;6.00;31.70
9118;DHT22;4594;50.994;7.126;2023-02-15T01:18:29;5.90;31.70
9118;DHT22;4594;50.994;7.126;2023-02-15T01:20:55;5.90;31.70
9118;DHT22;4594;50.994;7.126;2023-02-15T01:23:21;5.90;31.70
9118;DHT22;4594;50.994;7.126;2023-02-15T01:25:47;5.90;31.80
9118;DHT22;4594;50.994;7.126;2023-02-15T01:28:12;5.90;31.70
9118;DHT22;4594;50.994;7.126;2023-02-15T01:30:39;5.80;31.70
9118;DHT22;4594;50.994;7.126;2023-02-15T01:33:05;5.80;31.70
9118;DHT22;4594;50.994;7.126;2023-02-15T01:35:31;5.80;31.70
9118;DHT22;4594;50.994;7.126;2023-02-15T01:37:57;5.80;31.80
9118;DHT22;4594;50.994;7.126;2023-02-15T01:40:24;5.80;31.80
9118;DHT22;4594;50.994;7.126;2023-02-15T01:42:52;5.70;31.70
9118;DHT22;4594;50.994;7.126;2023-02-15T01:45:26;5.70;31.80
9118;DHT22;4594;50.994;7.126;2023-02-15T01:50:56;5.70;31.90
9118;DHT22;4594;50.994;7.126;2023-02-15T01:53:38;5.70;31.80
9118;DHT22;4594;50.994;7.126;2023-02-15T01:56:23;5.70;32.00
9118;DHT22;4594;50.994;7.126;2023-02-15T01:58:54;5.60;31.80
9118;DHT22;4594;50.994;7.126;2023-02-15T02:01:24;5.60;31.70
9118;DHT22;4594;50.994;7.126;2023-02-15T02:06:30;5.60;32.00
9118;DHT22;4594;50.994;7.126;2023-02-15T02:08:58;5.50;31.70
9118;DHT22;4594;50.994;7.126;2023-02-15T02:11:24;5.50;31.70
9118;DHT22;4594;50.994;7.126;2023-02-15T02:13:51;5.50;31.80
9118;DHT22;4594;50.994;7.126;2023-02-15T02:16:24;5.50;31.90
9118;DHT22;4594;50.994;7.126;2023-02-15T02:25:30;5.50;32.10
9118;DHT22;4594;50.994;7.126;2023-02-15T02:31:49;5.40;32.20
9118;DHT22;4594;50.994;7.126;2023-02-15T02:34:43;5.40;31.90
9118;DHT22;4594;50.994;7.126;2023-02-15T02:37:28;5.40;31.90
9118;DHT22;4594;50.994;7.126;2023-02-15T02:40:03;5.40;31.90
9118;DHT22;4594;50.994;7.126;2023-02-15T02:42:40;5.40;31.80
9118;DHT22;4594;50.994;7.126;2023-02-15T02:45:22;5.30;31.90
9118;DHT22;4594;50.994;7.126;2023-02-15T02:48:08;5.30;32.00
9118;DHT22;4594;50.994;7.126;2023-02-15T02:50:40;5.30;32.00
9118;DHT22;4594;50.994;7.126;2023-02-15T02:53:07;5.30;31.80
9118;DHT22;4594;50.994;7.126;2023-02-15T02:55:42;5.30;31.80
9118;DHT22;4594;50.994;7.126;2023-02-15T03:01:03;5.30;32.00
9118;DHT22;4594;50.994;7.126;2023-02-15T03:03:42;5.30;31.90
9118;DHT22;4594;50.994;7.126;2023-02-15T03:12:19;5.20;31.90
9118;DHT22;4594;50.994;7.126;2023-02-15T03:14:52;5.20;31.80
9118;DHT22;4594;50.994;7.126;2023-02-15T03:17:23;5.20;31.90
9118;DHT22;4594;50.994;7.126;2023-02-15T03:19:54;5.20;31.90
9118;DHT22;4594;50.994;7.126;2023-02-15T03:22:38;5.20;31.90
9118;DHT22;4594;50.994;7.126;2023-02-15T03:25:13;5.20;32.10
9118;DHT22;4594;50.994;7.126;2023-02-15T03:27:49;5.20;32.00
9118;DHT22;4594;50.994;7.126;2023-02-15T03:30:21;5.20;32.00
9118;DHT22;4594;50.994;7.126;2023-02-15T03:32:48;5.10;31.90
9118;DHT22;4594;50.994;7.126;2023-02-15T03:35:16;5.10;31.90
9118;DHT22;4594;50.994;7.126;2023-02-15T03:37:55;5.10;31.90
9118;DHT22;4594;50.994;7.126;2023-02-15T03:40:44;5.10;32.10
9118;DHT22;4594;50.994;7.126;2023-02-15T03:43:53;5.10;32.30
9118;DHT22;4594;50.994;7.126;2023-02-15T03:46:47;5.10;32.00
9118;DHT22;4594;50.994;7.126;2023-02-15T03:49:28;5.10;32.30
9118;DHT22;4594;50.994;7.126;2023-02-15T03:52:16;5.10;32.10
9118;DHT22;4594;50.994;7.126;2023-02-15T03:54:43;5.10;32.00
9118;DHT22;4594;50.994;7.126;2023-02-15T03:57:22;5.00;32.00
9118;DHT22;4594;50.994;7.126;2023-02-15T04:00:23;5.00;32.00
9118;DHT22;4594;50.994;7.126;2023-02-15T04:03:41;5.00;32.20
9118;DHT22;4594;50.994;7.126;2023-02-15T04:06:10;5.00;32.60
9118;DHT22;4594;50.994;7.126;2023-02-15T04:08:36;5.00;31.90
9118;DHT22;4594;50.994;7.126;2023-02-15T04:11:20;5.00;32.00
9118;DHT22;4594;50.994;7.126;2023-02-15T04:13:46;5.00;32.00
9118;DHT22;4594;50.994;7.126;2023-02-15T04:16:11;5.00;32.00
9118;DHT22;4594;50.994;7.126;2023-02-15T04:18:42;5.00;32.00
9118;DHT22;4594;50.994;7.126;2023-02-15T04:21:29;5.00;32.10
9118;DHT22;4594;50.994;7.126;2023-02-15T04:24:14;5.00;32.00
9118;DHT22;4594;50.994;7.126;2023-02-15T04:26:59;5.00;32.00
9118;DHT22;4594;50.994;7.126;2023-02-15T04:29:26;5.00;32.00
9118;DHT22;4594;50.994;7.126;2023-02-15T04:31:54;5.00;32.00
9118;DHT22;4594;50.994;7.126;2023-02-15T04:34:21;4.90;32.00
9118;DHT22;4594;50.994;7.126;2023-02-15T04:36:48;4.90;32.00
9118;DHT22;4594;50.994;7.126;2023-02-15T04:39:16;4.90;32.00
9118;DHT22;4594;50.994;7.126;2023-02-15T04:41:43;4.90;32.10
9118;DHT22;4594;50.994;7.126;2023-02-15T04:44:10;4.90;32.10
9118;DHT22;4594;50.994;7.126;2023-02-15T04:46:36;4.90;32.10
9118;DHT22;4594;50.994;7.126;2023-02-15T04:49:02;4.90;32.10
9118;DHT22;4594;50.994;7.126;2023-02-15T04:51:28;4.90;32.10
9118;DHT22;4594;50.994;7.126;2023-02-15T04:53:54;4.90;32.10
9118;DHT22;4594;50.994;7.126;2023-02-15T04:56:20;4.90;32.10
9118;DHT22;4594;50.994;7.126;2023-02-15T04:58:46;4.80;32.10
9118;DHT22;4594;50.994;7.126;2023-02-15T05:01:12;4.80;32.00
9118;DHT22;4594;50.994;7.126;2023-02-15T05:03:38;4.80;32.00
9118;DHT22;4594;50.994;7.126;2023-02-15T05:06:04;4.80;32.00
9118;DHT22;4594;50.994;7.126;2023-02-15T05:08:31;4.80;32.10
9118;DHT22;4594;50.994;7.126;2023-02-15T05:10:57;4.80;32.00
9118;DHT22;4594;50.994;7.126;2023-02-15T05:13:23;4.70;32.00
9118;DHT22;4594;50.994;7.126;2023-02-15T05:15:50;4.70;32.00
9118;DHT22;4594;50.994;7.126;2023-02-15T05:18:18;4.70;32.10
9118;DHT22;4594;50.994;7.126;2023-02-15T05:20:45;4.70;32.00
9118;DHT22;4594;50.994;7.126;2023-02-15T05:23:11;4.70;32.00
9118;DHT22;4594;50.994;7.126;2023-02-15T05:25:37;4.70;32.10
9118;DHT22;4594;50.994;7.126;2023-02-15T05:28:23;4.70;32.10
9118;DHT22;4594;50.994;7.126;2023-02-15T05:30:51;4.60;32.00
9118;DHT22;4594;50.994;7.126;2023-02-15T05:33:27;4.60;32.00
9118;DHT22;4594;50.994;7.126;2023-02-15T05:35:52;4.60;32.00
9118;DHT22;4594;50.994;7.126;2023-02-15T05:38:18;4.60;32.10
9118;DHT22;4594;50.994;7.126;2023-02-15T05:40:44;4.60;32.10
9118;DHT22;4594;50.994;7.126;2023-02-15T05:43:09;4.60;32.10
9118;DHT22;4594;50.994;7.126;2023-02-15T05:45:35;4.60;32.10
9118;DHT22;4594;50.994;7.126;2023-02-15T05:48:01;4.50;32.00
9118;DHT22;4594;50.994;7.126;2023-02-15T05:50:26;4.50;32.00
9118;DHT22;4594;50.994;7.126;2023-02-15T05:52:52;4.50;32.00
9118;DHT22;4594;50.994;7.126;2023-02-15T05:55:18;4.50;32.00
9118;DHT22;4594;50.994;7.126;2023-02-15T05:57:44;4.50;32.10
9118;DHT22;4594;50.994;7.126;2023-02-15T06:00:11;4.50;32.10
9118;DHT22;4594;50.994;7.126;2023-02-15T06:02:38;4.50;32.10
9118;DHT22;4594;50.994;7.126;2023-02-15T06:05:05;4.50;32.10
9118;DHT22;4594;50.994;7.126;2023-02-15T06:07:31;4.50;32.20
9118;DHT22;4594;50.994;7.126;2023-02-15T06:09:57;4.50;32.20
9118;DHT22;4594;50.994;7.126;2023-02-15T06:12:23;4.50;32.30
9118;DHT22;4594;50.994;7.126;2023-02-15T06:14:49;4.50;32.20
9118;DHT22;4594;50.994;7.126;2023-02-15T06:17:15;4.60;32.30
9118;DHT22;4594;50.994;7.126;2023-02-15T06:19:42;4.60;32.30
9118;DHT22;4594;50.994;7.126;2023-02-15T06:22:08;4.60;32.20
9118;DHT22;4594;50.994;7.126;2023-02-15T06:24:34;4.60;32.30
9118;DHT22;4594;50.994;7.126;2023-02-15T06:27:00;4.60;32.30
9118;DHT22;4594;50.994;7.126;2023-02-15T06:29:25;4.60;32.20
9118;DHT22;4594;50.994;7.126;2023-02-15T06:31:51;4.60;32.20
9118;DHT22;4594;50.994;7.126;2023-02-15T06:34:17;4.60;32.20
9118;DHT22;4594;50.994;7.126;2023-02-15T06:36:42;4.60;32.20
9118;DHT22;4594;50.994;7.126;2023-02-15T06:39:08;4.60;32.20
9118;DHT22;4594;50.994;7.126;2023-02-15T06:41:34;4.70;32.30
9118;DHT22;4594;50.994;7.126;2023-02-15T06:44:00;4.70;32.30
9118;DHT22;4594;50.994;7.126;2023-02-15T06:46:25;4.70;32.30
9118;DHT22;4594;50.994;7.126;2023-02-15T06:48:51;4.70;32.30
9118;DHT22;4594;50.994;7.126;2023-02-15T06:51:17;4.70;32.30
9118;DHT22;4594;50.994;7.126;2023-02-15T06:53:42;4.70;32.30
9118;DHT22;4594;50.994;7.126;2023-02-15T06:56:10;4.60;32.30
9118;DHT22;4594;50.994;7.126;2023-02-15T06:58:37;4.70;32.30
9118;DHT22;4594;50.994;7.126;2023-02-15T07:01:05;4.70;32.30
9118;DHT22;4594;50.994;7.126;2023-02-15T07:03:32;4.70;32.30
9118;DHT22;4594;50.994;7.126;2023-02-15T07:05:59;4.70;32.30
9118;DHT22;4594;50.994;7.126;2023-02-15T07:08:27;4.70;32.40
9118;DHT22;4594;50.994;7.126;2023-02-15T07:10:54;4.70;32.70
9118;DHT22;4594;50.994;7.126;2023-02-15T07:13:41;4.80;32.50
9118;DHT22;4594;50.994;7.126;2023-02-15T07:16:08;4.80;32.60
9118;DHT22;4594;50.994;7.126;2023-02-15T07:18:35;4.90;32.70
9118;DHT22;4594;50.994;7.126;2023-02-15T07:21:00;5.00;32.90
9118;DHT22;4594;50.994;7.126;2023-02-15T07:23:26;5.20;33.10
9118;DHT22;4594;50.994;7.126;2023-02-15T07:25:59;5.30;33.20
9118;DHT22;4594;50.994;7.126;2023-02-15T07:28:27;5.50;33.50
9118;DHT22;4594;50.994;7.126;2023-02-15T07:30:53;5.70;33.60
9118;DHT22;4594;50.994;7.126;2023-02-15T07:33:19;6.00;33.90
9118;DHT22;4594;50.994;7.126;2023-02-15T07:35:56;6.30;34.20
9118;DHT22;4594;50.994;7.126;2023-02-15T07:38:25;6.60;34.40
9118;DHT22;4594;50.994;7.126;2023-02-15T07:40:57;7.00;34.70
9118;DHT22;4594;50.994;7.126;2023-02-15T07:43:23;7.40;35.00
9118;DHT22;4594;50.994;7.126;2023-02-15T07:45:49;7.70;35.10
9118;DHT22;4594;50.994;7.126;2023-02-15T07:48:14;8.20;35.40
9118;DHT22;4594;50.994;7.126;2023-02-15T07:50:40;8.60;35.50
9118;DHT22;4594;50.994;7.126;2023-02-15T07:53:05;9.10;35.60
9118;DHT22;4594;50.994;7.126;2023-02-15T07:55:31;9.50;35.50
9118;DHT22;4594;50.994;7.126;2023-02-15T07:57:57;9.90;35.40
9118;DHT22;4594;50.994;7.126;2023-02-15T08:00:23;10.30;34.60
9118;DHT22;4594;50.994;7.126;2023-02-15T08:02:54;10.70;34.90
9118;DHT22;4594;50.994;7.126;2023-02-15T08:05:40;11.10;34.70
9118;DHT22;4594;50.994;7.126;2023-02-15T08:08:08;11.40;34.60
9118;DHT22;4594;50.994;7.126;2023-02-15T08:11:01;11.70;34.60
9118;DHT22;4594;50.994;7.126;2023-02-15T08:13:58;12.00;34.60
9118;DHT22;4594;50.994;7.126;2023-02-15T08:21:33;12.90;34.70
9118;DHT22;4594;50.994;7.126;2023-02-15T08:24:00;13.30;35.00
9118;DHT22;4594;50.994;7.126;2023-02-15T08:26:27;13.50;35.00
9118;DHT22;4594;50.994;7.126;2023-02-15T08:28:54;13.90;34.80
9118;DHT22;4594;50.994;7.126;2023-02-15T08:31:21;14.10;34.60
9118;DHT22;4594;50.994;7.126;2023-02-15T08:33:48;14.30;34.40
9118;DHT22;4594;50.994;7.126;2023-02-15T08:36:18;14.40;34.20
9118;DHT22;4594;50.994;7.126;2023-02-15T08:38:46;14.50;33.90
9118;DHT22;4594;50.994;7.126;2023-02-15T08:41:17;14.50;33.70
9118;DHT22;4594;50.994;7.126;2023-02-15T08:43:45;14.60;33.80
9118;DHT22;4594;50.994;7.126;2023-02-15T08:46:14;14.70;33.90
9118;DHT22;4594;50.994;7.126;2023-02-15T08:48:41;14.80;34.00
9118;DHT22;4594;50.994;7.126;2023-02-15T08:51:13;14.90;34.10
9118;DHT22;4594;50.994;7.126;2023-02-15T08:53:42;15.10;34.20
9118;DHT22;4594;50.994;7.126;2023-02-15T08:56:11;15.30;34.30
9118;DHT22;4594;50.994;7.126;2023-02-15T08:58:37;15.50;34.20
9118;DHT22;4594;50.994;7.126;2023-02-15T09:01:11;15.80;34.30
9118;DHT22;4594;50.994;7.126;2023-02-15T09:03:39;16.00;33.80
9118;DHT22;4594;50.994;7.126;2023-02-15T09:06:05;16.20;34.40
9118;DHT22;4594;50.994;7.126;2023-02-15T09:08:32;16.40;34.20
9118;DHT22;4594;50.994;7.126;2023-02-15T09:11:17;16.60;34.40
9118;DHT22;4594;50.994;7.126;2023-02-15T09:14:00;16.80;34.00
9118;DHT22;4594;50.994;7.126;2023-02-15T09:16:29;17.00;34.30
9118;DHT22;4594;50.994;7.126;2023-02-15T09:18:57;17.20;34.50
9118;DHT22;4594;50.994;7.126;2023-02-15T09:21:25;17.40;34.80
9118;DHT22;4594;50.994;7.126;2023-02-15T09:23:56;17.70;34.80
9118;DHT22;4594;50.994;7.126;2023-02-15T09:26:27;18.00;34.60
9118;DHT22;4594;50.994;7.126;2023-02-15T09:28:57;18.10;34.70
9118;DHT22;4594;50.994;7.126;2023-02-15T09:31:28;18.40;34.60
9118;DHT22;4594;50.994;7.126;2023-02-15T09:33:55;18.60;34.60
9118;DHT22;4594;50.994;7.126;2023-02-15T09:36:24;18.80;34.70
9118;DHT22;4594;50.994;7.126;2023-02-15T09:39:01;19.00;34.50
9118;DHT22;4594;50.994;7.126;2023-02-15T09:47:46;19.50;33.70
9118;DHT22;4594;50.994;7.126;2023-02-15T09:56:02;20.00;33.20
9118;DHT22;4594;50.994;7.126;2023-02-15T10:04:32;20.20;33.50
9118;DHT22;4594;50.994;7.126;2023-02-15T10:10:11;20.40;33.80
9118;DHT22;4594;50.994;7.126;2023-02-15T10:16:18;20.70;33.60
9118;DHT22;4594;50.994;7.126;2023-02-15T10:19:17;21.00;33.40
9118;DHT22;4594;50.994;7.126;2023-02-15T10:28:10;21.70;32.50
9118;DHT22;4594;50.994;7.126;2023-02-15T10:30:50;21.80;32.80
9118;DHT22;4594;50.994;7.126;2023-02-15T10:33:42;21.90;32.80
9118;DHT22;4594;50.994;7.126;2023-02-15T10:36:33;21.80;32.50
9118;DHT22;4594;50.994;7.126;2023-02-15T10:39:32;21.80;32.70
9118;DHT22;4594;50.994;7.126;2023-02-15T10:46:12;21.70;31.70
9118;DHT22;4594;50.994;7.126;2023-02-15T10:55:07;21.20;31.30
9118;DHT22;4594;50.994;7.126;2023-02-15T11:00:53;20.60;30.40
9118;DHT22;4594;50.994;7.126;2023-02-15T11:03:35;20.20;30.40
9118;DHT22;4594;50.994;7.126;2023-02-15T11:06:23;19.80;30.00
9118;DHT22;4594;50.994;7.126;2023-02-15T11:09:03;19.20;29.80
9118;DHT22;4594;50.994;7.126;2023-02-15T11:11:37;18.80;29.40
9118;DHT22;4594;50.994;7.126;2023-02-15T11:17:05;17.90;29.20
9118;DHT22;4594;50.994;7.126;2023-02-15T11:22:12;17.10;29.20
9118;DHT22;4594;50.994;7.126;2023-02-15T11:24:43;16.70;29.20
9118;DHT22;4594;50.994;7.126;2023-02-15T11:27:22;16.50;29.20
9118;DHT22;4594;50.994;7.126;2023-02-15T11:30:13;16.30;29.10
9118;DHT22;4594;50.994;7.126;2023-02-15T11:32:45;16.00;29.10
9118;DHT22;4594;50.994;7.126;2023-02-15T11:40:27;15.60;29.30
9118;DHT22;4594;50.994;7.126;2023-02-15T11:43:03;15.50;29.30
9118;DHT22;4594;50.994;7.126;2023-02-15T11:45:32;15.40;29.40
9118;DHT22;4594;50.994;7.126;2023-02-15T11:48:10;15.30;29.40
9118;DHT22;4594;50.994;7.126;2023-02-15T11:50:38;15.20;29.30
9118;DHT22;4594;50.994;7.126;2023-02-15T11:53:18;15.20;29.40
9118;DHT22;4594;50.994;7.126;2023-02-15T11:55:54;15.10;29.30
9118;DHT22;4594;50.994;7.126;2023-02-15T12:01:22;15.00;29.40
9118;DHT22;4594;50.994;7.126;2023-02-15T12:07:44;14.90;29.50
9118;DHT22;4594;50.994;7.126;2023-02-15T12:10:25;14.90;29.50
9118;DHT22;4594;50.994;7.126;2023-02-15T12:13:13;14.90;29.50
9118;DHT22;4594;50.994;7.126;2023-02-15T12:15:45;14.80;29.40
9118;DHT22;4594;50.994;7.126;2023-02-15T12:20:51;14.70;29.40
9118;DHT22;4594;50.994;7.126;2023-02-15T12:23:17;14.60;29.40
9118;DHT22;4594;50.994;7.126;2023-02-15T12:25:54;14.60;29.40
9118;DHT22;4594;50.994;7.126;2023-02-15T12:30:56;14.50;29.50
9118;DHT22;4594;50.994;7.126;2023-02-15T12:33:35;14.40;29.40
9118;DHT22;4594;50.994;7.126;2023-02-15T12:36:15;14.40;29.50
9118;DHT22;4594;50.994;7.126;2023-02-15T12:42:13;14.30;29.50
9118;DHT22;4594;50.994;7.126;2023-02-15T12:44:53;14.30;29.50
9118;DHT22;4594;50.994;7.126;2023-02-15T12:47:28;14.30;29.50
9118;DHT22;4594;50.994;7.126;2023-02-15T12:50:15;14.20;29.50
9118;DHT22;4594;50.994;7.126;2023-02-15T12:52:49;14.20;29.80
9118;DHT22;4594;50.994;7.126;2023-02-15T12:57:49;14.20;29.70
9118;DHT22;4594;50.994;7.126;2023-02-15T13:00:30;14.30;29.80
9118;DHT22;4594;50.994;7.126;2023-02-15T13:02:58;14.30;29.80
9118;DHT22;4594;50.994;7.126;2023-02-15T13:10:41;14.30;29.80
9118;DHT22;4594;50.994;7.126;2023-02-15T13:13:32;14.40;29.90
9118;DHT22;4594;50.994;7.126;2023-02-15T13:16:11;14.40;29.80
9118;DHT22;4594;50.994;7.126;2023-02-15T13:18:45;14.50;29.90
9118;DHT22;4594;50.994;7.126;2023-02-15T13:21:19;14.50;29.90
9118;DHT22;4594;50.994;7.126;2023-02-15T13:23:52;14.50;29.90
9118;DHT22;4594;50.994;7.126;2023-02-15T13:26:25;14.50;29.90
9118;DHT22;4594;50.994;7.126;2023-02-15T13:29:05;14.60;30.10
9118;DHT22;4594;50.994;7.126;2023-02-15T13:31:34;14.60;29.90
9118;DHT22;4594;50.994;7.126;2023-02-15T13:34:09;14.60;29.90
9118;DHT22;4594;50.994;7.126;2023-02-15T13:56:53;14.70;29.80
9118;DHT22;4594;50.994;7.126;2023-02-15T14:06:14;14.70;29.80
9118;DHT22;4594;50.994;7.126;2023-02-15T14:12:19;14.70;30.00
9118;DHT22;4594;50.994;7.126;2023-02-15T14:21:03;14.80;30.00
9118;DHT22;4594;50.994;7.126;2023-02-15T14:29:53;14.80;30.00
9118;DHT22;4594;50.994;7.126;2023-02-15T14:32:42;14.80;30.00
9118;DHT22;4594;50.994;7.126;2023-02-15T14:35:19;14.80;30.00
9118;DHT22;4594;50.994;7.126;2023-02-15T14:49:14;14.80;30.00
9118;DHT22;4594;50.994;7.126;2023-02-15T15:07:54;14.70;30.00
9118;DHT22;4594;50.994;7.126;2023-02-15T15:12:51;14.60;30.00
9118;DHT22;4594;50.994;7.126;2023-02-15T15:21:11;14.50;29.90
9118;DHT22;4594;50.994;7.126;2023-02-15T15:23:56;14.50;30.00
9118;DHT22;4594;50.994;7.126;2023-02-15T15:28:56;14.40;29.90
9118;DHT22;4594;50.994;7.126;2023-02-15T15:31:50;14.30;29.90
9118;DHT22;4594;50.994;7.126;2023-02-15T15:35:02;14.30;29.90
9118;DHT22;4594;50.994;7.126;2023-02-15T15:38:05;14.30;29.90
9118;DHT22;4594;50.994;7.126;2023-02-15T15:44:01;14.20;29.90
9118;DHT22;4594;50.994;7.126;2023-02-15T15:47:17;14.10;29.90
9118;DHT22;4594;50.994;7.126;2023-02-15T15:49:58;14.10;29.90
9118;DHT22;4594;50.994;7.126;2023-02-15T15:52:26;14.00;29.90
9118;DHT22;4594;50.994;7.126;2023-02-15T15:54:56;14.00;29.90
9118;DHT22;4594;50.994;7.126;2023-02-15T15:57:31;14.00;29.90
9118;DHT22;4594;50.994;7.126;2023-02-15T16:00:00;13.90;29.80
9118;DHT22;4594;50.994;7.126;2023-02-15T16:02:27;13.90;29.80
9118;DHT22;4594;50.994;7.126;2023-02-15T16:04:53;13.80;29.80
9118;DHT22;4594;50.994;7.126;2023-02-15T16:10:02;13.70;29.80
9118;DHT22;4594;50.994;7.126;2023-02-15T16:12:36;13.70;29.80
9118;DHT22;4594;50.994;7.126;2023-02-15T16:15:14;13.60;29.80
9118;DHT22;4594;50.994;7.126;2023-02-15T16:17:48;13.60;29.80
9118;DHT22;4594;50.994;7.126;2023-02-15T16:22:53;13.50;29.80
9118;DHT22;4594;50.994;7.126;2023-02-15T16:26:07;13.40;29.80
9118;DHT22;4594;50.994;7.126;2023-02-15T16:28:51;13.40;29.80
9118;DHT22;4594;50.994;7.126;2023-02-15T16:31:18;13.30;29.80
9118;DHT22;4594;50.994;7.126;2023-02-15T16:33:45;13.20;29.70
9118;DHT22;4594;50.994;7.126;2023-02-15T16:36:23;13.20;29.70
9118;DHT22;4594;50.994;7.126;2023-02-15T16:41:21;13.10;29.70
9118;DHT22;4594;50.994;7.126;2023-02-15T16:43:50;13.00;29.70
9118;DHT22;4594;50.994;7.126;2023-02-15T16:46:27;13.00;29.70
9118;DHT22;4594;50.994;7.126;2023-02-15T16:49:21;13.00;29.80
9118;DHT22;4594;50.994;7.126;2023-02-15T16:51:56;12.80;29.80
9118;DHT22;4594;50.994;7.126;2023-02-15T16:54:24;12.70;29.70
9118;DHT22;4594;50.994;7.126;2023-02-15T16:56:51;12.80;29.70
9118;DHT22;4594;50.994;7.126;2023-02-15T16:59:35;12.70;29.70
9118;DHT22;4594;50.994;7.126;2023-02-15T17:02:18;12.60;29.70
9118;DHT22;4594;50.994;7.126;2023-02-15T17:05:13;12.60;29.80
9118;DHT22;4594;50.994;7.126;2023-02-15T17:07:49;12.50;29.80
9118;DHT22;4594;50.994;7.126;2023-02-15T17:10:35;12.40;29.70
9118;DHT22;4594;50.994;7.126;2023-02-15T17:13:15;12.30;29.80
9118;DHT22;4594;50.994;7.126;2023-02-15T17:21:12;12.20;29.70
9118;DHT22;4594;50.994;7.126;2023-02-15T17:23:45;12.00;29.70
9118;DHT22;4594;50.994;7.126;2023-02-15T17:28:53;11.90;29.70
9118;DHT22;4594;50.994;7.126;2023-02-15T17:33:52;11.80;29.70
9118;DHT22;4594;50.994;7.126;2023-02-15T17:36:25;11.80;29.70
9118;DHT22;4594;50.994;7.126;2023-02-15T17:41:27;11.60;29.70
9118;DHT22;4594;50.994;7.126;2023-02-15T17:43:55;11.60;29.80
9118;DHT22;4594;50.994;7.126;2023-02-15T17:46:20;11.60;29.70
9118;DHT22;4594;50.994;7.126;2023-02-15T17:48:48;11.50;29.70
9118;DHT22;4594;50.994;7.126;2023-02-15T17:51:16;11.50;29.80
9118;DHT22;4594;50.994;7.126;2023-02-15T17:53:43;11.50;29.80
9118;DHT22;4594;50.994;7.126;2023-02-15T17:56:30;11.40;29.70
9118;DHT22;4594;50.994;7.126;2023-02-15T17:58:56;11.40;29.80
9118;DHT22;4594;50.994;7.126;2023-02-15T18:01:22;11.40;29.80
9118;DHT22;4594;50.994;7.126;2023-02-15T18:04:12;11.40;29.80
9118;DHT22;4594;50.994;7.126;2023-02-15T18:06:58;11.30;29.80
9118;DHT22;4594;50.994;7.126;2023-02-15T18:09:43;11.30;29.80
9118;DHT22;4594;50.994;7.126;2023-02-15T18:12:33;11.20;29.80
9118;DHT22;4594;50.994;7.126;2023-02-15T18:15:04;11.20;29.80
9118;DHT22;4594;50.994;7.126;2023-02-15T18:17:39;11.10;29.80
9118;DHT22;4594;50.994;7.126;2023-02-15T18:20:21;11.10;29.90
9118;DHT22;4594;50.994;7.126;2023-02-15T18:22:48;11.00;29.90
9118;DHT22;4594;50.994;7.126;2023-02-15T18:25:17;11.00;29.80
9118;DHT22;4594;50.994;7.126;2023-02-15T18:27:44;10.90;29.80
9118;DHT22;4594;50.994;7.126;2023-02-15T18:30:16;10.90;29.80
9118;DHT22;4594;50.994;7.126;2023-02-15T18:32:44;10.80;29.80
9118;DHT22;4594;50.994;7.126;2023-02-15T18:35:19;10.80;29.80
9118;DHT22;4594;50.994;7.126;2023-02-15T18:37:48;10.80;29.90
9118;DHT22;4594;50.994;7.126;2023-02-15T18:40:22;10.70;29.80
9118;DHT22;4594;50.994;7.126;2023-02-15T18:42:50;10.70;29.90
9118;DHT22;4594;50.994;7.126;2023-02-15T18:45:19;10.70;29.90
9118;DHT22;4594;50.994;7.126;2023-02-15T18:47:49;10.70;29.90
9118;DHT22;4594;50.994;7.126;2023-02-15T18:50:17;10.70;29.90
9118;DHT22;4594;50.994;7.126;2023-02-15T18:52:47;10.70;29.90
9118;DHT22;4594;50.994;7.126;2023-02-15T18:55:18;10.60;29.90
9118;DHT22;4594;50.994;7.126;2023-02-15T18:57:50;10.60;29.90
9118;DHT22;4594;50.994;7.126;2023-02-15T19:00:30;10.60;30.00
9118;DHT22;4594;50.994;7.126;2023-02-15T19:02:57;10.60;30.00
9118;DHT22;4594;50.994;7.126;2023-02-15T19:05:25;10.60;30.00
9118;DHT22;4594;50.994;7.126;2023-02-15T19:07:53;10.60;30.00
9118;DHT22;4594;50.994;7.126;2023-02-15T19:10:22;10.50;29.90
9118;DHT22;4594;50.994;7.126;2023-02-15T19:12:50;10.50;30.00
9118;DHT22;4594;50.994;7.126;2023-02-15T19:15:23;10.50;30.00
9118;DHT22;4594;50.994;7.126;2023-02-15T19:17:51;10.50;30.00
9118;DHT22;4594;50.994;7.126;2023-02-15T19:20:21;10.50;30.00
9118;DHT22;4594;50.994;7.126;2023-02-15T19:22:50;10.50;30.00
9118;DHT22;4594;50.994;7.126;2023-02-15T19:25:25;10.40;30.00
9118;DHT22;4594;50.994;7.126;2023-02-15T19:27:53;10.40;30.00
9118;DHT22;4594;50.994;7.126;2023-02-15T19:32:51;10.30;30.00
9118;DHT22;4594;50.994;7.126;2023-02-15T19:35:21;10.30;30.00
9118;DHT22;4594;50.994;7.126;2023-02-15T19:37:55;10.30;30.00
9118;DHT22;4594;50.994;7.126;2023-02-15T19:40:26;10.30;30.00
9118;DHT22;4594;50.994;7.126;2023-02-15T19:42:55;10.30;30.00
9118;DHT22;4594;50.994;7.126;2023-02-15T19:45:23;10.30;30.00
9118;DHT22;4594;50.994;7.126;2023-02-15T19:47:51;10.20;30.00
9118;DHT22;4594;50.994;7.126;2023-02-15T19:50:27;10.20;30.00
9118;DHT22;4594;50.994;7.126;2023-02-15T19:52:54;10.20;30.00
9118;DHT22;4594;50.994;7.126;2023-02-15T19:55:26;10.20;30.00
9118;DHT22;4594;50.994;7.126;2023-02-15T19:57:55;10.20;30.00
9118;DHT22;4594;50.994;7.126;2023-02-15T20:00:27;10.10;30.00
9118;DHT22;4594;50.994;7.126;2023-02-15T20:02:58;10.10;30.00
9118;DHT22;4594;50.994;7.126;2023-02-15T20:05:26;10.10;30.00
9118;DHT22;4594;50.994;7.126;2023-02-15T20:07:53;10.00;30.00
9118;DHT22;4594;50.994;7.126;2023-02-15T20:10:26;10.00;30.00
9118;DHT22;4594;50.994;7.126;2023-02-15T20:12:53;10.00;30.00
9118;DHT22;4594;50.994;7.126;2023-02-15T20:15:24;10.00;30.00
9118;DHT22;4594;50.994;7.126;2023-02-15T20:17:52;9.90;30.90
9118;DHT22;4594;50.994;7.126;2023-02-15T20:20:20;9.90;30.80